Airfield :







YOU CAN JOIN US ON...

 
LOGIN :

Register | Disclaimer

   EN    FR    IT 

 









Legend :    VFR   Marginal VFR   IFR   Intensive IFR   Very Intensive IFR
Visi :
Ceiling :
>= 8 km
>= 3000ft
5 to 8 km
1000 to 3000 ft
1500m to 5 km
500 to 1000 ft
800 to 1500m
200 to 500 ft
< 800m
< 200 ft
Symbols :   Thunderstorms  Fog  Heavy snow  Heavy precipitations  Wind > 20 kt






- Airport Elevation : 160 ft
- IATA code : YYG


CYYG - Charlottetown

CURRENT METAR :
  • 080600Z 24006KT 15SM BKN082 OVC120 M00/M05 A2964 RMK AC7AC1 SLP040

EXPIRED METARs :
  • 080500Z 19006KT 15SM SCT090 BKN120 OVC200 M01/M05 A2966 RMK AC3AC2CS3 HALO SLP048
  • 080400Z 13005KT 15SM BKN090 M01/M04 A2968 RMK AC7 SLP056

TAF TAF CYYG
Valid from the 08 at 06:00 until the 08 at 18:00 UTC


080538Z 0806/0818 19005KT P6SM BKN120
BECMG 0808/0810 28006KT
FM081700 35010KT P6SM SCT080 RMK NXT FCST BY 081200Z



MET'MAP, your aeronautical weather chart ! - Copyright ORBIFLY December 2007 - Disclaimer

ORBIFLY MET'MAP TEAM :

Programming & Development : Alexandra Zaïnal
Concept & original design : Baudouin d'Aumeries
Assistance for programming : Marc-Olivier Méhu
Technical & hardware support : Manuel Goepfert

Contact : metmap@orbifly.com




SOURCES & CREDITS :

   NOAA